Tropical Cyclones
[Index]
Main Index Home Page Stock Weather Photos Extreme Storms Discussion Storm News and Storm Chasing Reports Tropical Cyclones / Hurricanes / Typhoons Weather Data and Links Wild Fires / Bushfires Weather Observation Techniques Weather Picture Catalogue Tornado Pictures and Reports Stock Video Footage and DVDs for sale
Season 1975-1976 Tropical Cyclone SUE Track Map
Season 1975-1976 Summaries: [BoM-AU] [JTWC-AU] [JTWC-SIO] [JTWC-SPAC] [JTWC-SH]
<<- Previous TC | BoM 1975-1976 Season | Next TC ->>

click for intensity scale information  Lat/long Grid: Show Hide

 Date Labels: Show Hide

Bureau of Meteorology Tropical Cyclone Data

Name: SUE
Number: 549 / 197576_04

12 Dec 1975 00:00 UTC to 16 Dec 1975 00:00 UTC

    date/time    lat    long    hPa   cat  kts
1975-12-12 00    9.3   100.5   1004                     
1975-12-12 03    9.4   100.9   1003                     
1975-12-12 06    9.4   101.2   1002                     
1975-12-12 09    9.5   101.5   1002                     
1975-12-12 12    9.7   101.8   1002                     
1975-12-12 15    9.9   102.2   1002                     
1975-12-12 18   10.0   102.5   1002                     
1975-12-12 21   10.1   102.8   1002                     
1975-12-13 00   10.2   103.0   1001                     
1975-12-13 03   10.3   103.3   1001                     
1975-12-13 06   10.4   103.5   1001                     
1975-12-13 09   10.5   103.8   1001                     
1975-12-13 12   10.6   104.0   1001                     
1975-12-13 15   10.7   104.3   1000                     
1975-12-13 18   10.8   104.5    998                     
1975-12-13 21   10.9   104.7    996                     
1975-12-14 00   11.0   105.0    994    1                
1975-12-14 03   11.2   105.6    994    1                
1975-12-14 06   11.4   106.3    994    1                
1975-12-14 09   11.4   106.9    995    1                
1975-12-14 12   11.4   107.5    998                     
1975-12-14 15   11.3   108.2   1001                     
1975-12-14 18   11.2   108.6   1000                     
1975-12-14 21   11.0   109.3   1001                     
1975-12-15 00   10.9   110.0   1003                     
1975-12-15 03   10.5   110.8   1003                     
1975-12-15 06   10.3   111.7   1002                     
1975-12-15 09   10.2   112.6   1003                     
1975-12-15 12   10.2   113.6   1004                     
1975-12-15 15   10.3   114.6   1005                     
1975-12-15 15   10.4   114.8                            
1975-12-15 18   10.8   115.6   1004                     
1975-12-15 21   11.3   116.8   1004                     
1975-12-16 00   11.5   118.0   1005                     
Winds are 10-min average.

Tropical cyclone tracks developed by Michael Bath using data from the Bureau of Meteorology and Google Maps.


[Australian Severe Weather index] [Copyright Notice] [Email Contacts] [Search This Site] [Privacy Policy]
Document: tropical_cyclone_sue.htm Updated: 30 May 2013